Time;durP1;ratioP1;P1;durP2;ratioP2;P2;SDS_P1;SDS_P2;PMS_P1;PMS_P2;Temp;Humidity;BMP_temperature;BMP_pressure;BME280_temperature;BME280_humidity;BME280_pressure;Samples;Min_cycle;Max_cycle;Signal;HPM_P1;HPM_P2
2021/05/06 00:01:54;;;;;;;16.75;2.65;;;;;;;2.20;94.57;99505.09;5094753;28;20028;-81
2021/05/06 00:33:54;;;;;;;12.80;1.98;;;;;;;2.14;95.27;99488.91;5098159;28;20032;-81
2021/05/06 00:36:19;;;;;;;16.38;2.38;;;;;;;2.11;95.03;99494.03;5096943;28;20051;-81
2021/05/06 00:38:48;;;;;;;12.23;1.95;;;;;;;2.16;94.89;99500.00;5096904;28;20491;-81
2021/05/06 00:41:32;;;;;;;16.05;2.08;;;;;;;2.05;95.70;99493.19;5097121;28;20040;-81
2021/05/06 00:55:00;;;;;;;16.92;2.50;;;;;;;2.00;95.56;99476.13;5097392;28;20400;-81
2021/05/06 01:00:23;;;;;;;11.57;2.30;;;;;;;2.03;95.18;99478.69;5099072;28;20032;-81
2021/05/06 01:10:55;;;;;;;11.60;2.20;;;;;;;1.99;95.26;99485.50;5098983;28;20106;-81
2021/05/06 01:13:08;;;;;;;10.55;1.83;;;;;;;2.02;95.21;99493.19;5098097;28;20032;-81
2021/05/06 01:15:33;;;;;;;14.90;2.25;;;;;;;1.96;95.53;99488.06;5097507;28;20032;-81
2021/05/06 01:17:58;;;;;;;13.20;2.03;;;;;;;1.93;95.87;99477.84;5098378;28;20024;-81
2021/05/06 01:20:24;;;;;;;16.42;2.35;;;;;;;1.94;95.38;99484.69;5097621;28;20486;-81
2021/05/06 01:22:50;;;;;;;11.02;2.10;;;;;;;1.97;95.28;99477.00;5080115;28;20020;-81
2021/05/06 01:25:16;;;;;;;14.85;1.98;;;;;;;1.95;95.54;99477.84;5096294;28;20039;-82
2021/05/06 01:28:02;;;;;;;11.90;2.05;;;;;;;1.87;95.79;99482.97;5096678;28;20487;-82
2021/05/06 01:30:42;;;;;;;14.40;2.22;;;;;;;1.74;97.01;99489.78;5098269;28;20396;-81
2021/05/06 01:33:20;;;;;;;13.38;2.10;;;;;;;1.77;96.73;99484.66;5079993;28;20048;-82
2021/05/06 01:35:55;;;;;;;13.40;2.40;;;;;;;1.91;95.36;99481.25;5098584;28;20024;-82
2021/05/06 01:41:25;;;;;;;11.18;2.03;;;;;;;1.83;95.71;99478.72;5096907;28;20019;-81
2021/05/06 01:59:57;;;;;;;9.32;1.63;;;;;;;1.76;95.48;99477.88;5098085;28;20333;-81
2021/05/06 02:02:23;;;;;;;13.80;2.88;;;;;;;1.65;96.13;99486.38;5097567;28;20035;-82
2021/05/06 02:04:48;;;;;;;17.48;2.22;;;;;;;1.68;95.61;99478.72;5079377;28;20061;-81
2021/05/06 02:07:14;;;;;;;12.95;2.45;;;;;;;1.67;96.00;99479.56;5096767;28;20039;-81
2021/05/06 02:09:39;;;;;;;16.83;2.28;;;;;;;1.59;96.38;99492.34;5079632;28;20068;-81
2021/05/06 02:12:05;;;;;;;17.80;2.47;;;;;;;1.58;96.76;99486.38;5096334;28;20024;-81
2021/05/06 02:14:31;;;;;;;15.00;1.83;;;;;;;1.60;95.96;99484.69;5097936;28;20032;-81
2021/05/06 02:16:56;;;;;;;13.80;2.00;;;;;;;1.49;97.09;99482.97;5079661;28;20020;-82
2021/05/06 02:19:32;;;;;;;12.40;1.98;;;;;;;1.50;96.62;99490.63;5096682;28;20542;-82
2021/05/06 02:21:57;;;;;;;15.68;2.72;;;;;;;1.44;97.41;99482.09;5079743;28;20514;-82
2021/05/06 02:24:22;;;;;;;15.18;2.00;;;;;;;1.40;97.13;99488.91;5097548;28;20032;-82
2021/05/06 02:26:48;;;;;;;12.10;2.30;;;;;;;1.40;97.54;99495.72;5078909;28;20028;-81
2021/05/06 02:29:13;;;;;;;8.48;1.75;;;;;;;1.43;97.20;99493.19;5096534;28;20051;-81
2021/05/06 02:31:39;;;;;;;11.00;1.67;;;;;;;1.42;96.81;99496.56;5095422;28;20048;-81
2021/05/06 02:34:04;;;;;;;12.60;2.40;;;;;;;1.44;96.58;99494.88;5078538;28;20476;-81
2021/05/06 02:36:29;;;;;;;14.50;2.55;;;;;;;1.45;96.94;99489.78;5097169;28;20020;-81
2021/05/06 02:38:55;;;;;;;11.27;2.63;;;;;;;1.37;97.43;99479.53;5096105;28;20028;-81
2021/05/06 02:41:27;;;;;;;14.95;3.05;;;;;;;1.38;97.10;99493.16;5096514;28;20081;-81
2021/05/06 02:43:53;;;;;;;14.25;1.67;;;;;;;1.43;96.85;99486.34;5095165;28;20514;-81
2021/05/06 02:46:18;;;;;;;14.93;2.42;;;;;;;1.36;97.33;99492.31;5096808;28;20020;-82
2021/05/06 02:48:46;;;;;;;9.90;1.70;;;;;;;1.34;97.34;99484.63;5094533;28;20062;-82
2021/05/06 02:51:12;;;;;;;10.77;1.88;;;;;;;1.31;97.34;99486.34;5077052;28;20016;-82
2021/05/06 02:53:48;;;;;;;11.43;2.25;;;;;;;1.39;96.98;99487.22;5095690;28;20054;-81
2021/05/06 02:56:21;;;;;;;10.82;1.73;;;;;;;1.35;97.50;99488.03;5095292;28;20036;-81
2021/05/06 03:04:21;;;;;;;15.65;1.90;;;;;;;1.43;96.32;99493.19;5096348;28;20089;-81
2021/05/06 03:06:53;;;;;;;14.48;2.03;;;;;;;1.43;96.52;99494.03;5095523;28;20431;-81
2021/05/06 03:09:31;;;;;;;12.65;1.98;;;;;;;1.34;96.59;99497.41;5077058;28;20020;-81
2021/05/06 03:12:11;;;;;;;9.15;1.67;;;;;;;1.31;96.94;99494.84;5095686;28;20373;-81
2021/05/06 03:22:48;;;;;;;12.13;2.00;;;;;;;1.26;97.85;99483.78;5095316;28;20031;-81
2021/05/06 03:25:18;;;;;;;15.55;2.55;;;;;;;1.20;98.00;99488.00;5094300;28;20036;-81
2021/05/06 04:18:59;;;;;;;11.27;1.90;;;;;;;1.52;95.83;99478.69;5098840;28;20035;-81
2021/05/06 04:37:06;;;;;;;10.55;1.77;;;;;;;1.70;95.72;99494.91;5099200;28;20039;-81
2021/05/06 04:39:47;;;;;;;15.05;1.83;;;;;;;1.79;94.96;99506.00;5096902;28;20071;-81
2021/05/06 04:53:26;;;;;;;10.63;1.90;;;;;;;1.94;94.46;99501.69;5098616;28;20081;-81
2021/05/06 04:56:03;;;;;;;11.82;1.90;;;;;;;2.08;94.39;99500.84;5098623;28;20085;-81
2021/05/06 05:06:20;;;;;;;10.15;2.10;;;;;;;2.82;90.67;99499.81;5098364;28;20032;-81
2021/05/06 05:08:53;;;;;;;10.60;2.15;;;;;;;2.96;88.82;99500.63;5098639;28;20046;-81
2021/05/06 05:27:25;;;;;;;7.32;1.90;;;;;;;4.60;80.56;99494.22;5098826;28;20028;-81
2021/05/06 05:29:51;;;;;;;9.80;2.00;;;;;;;4.34;81.37;99494.47;5098504;28;20399;-81
2021/05/06 05:32:22;;;;;;;11.85;1.90;;;;;;;4.70;80.24;99500.09;5096053;28;20089;-80
2021/05/06 05:34:56;;;;;;;19.50;2.60;;;;;;;4.78;78.99;99501.72;5094587;28;20427;-80
2021/05/06 05:37:23;;;;;;;10.02;1.88;;;;;;;4.97;79.08;99496.34;5096310;28;20093;-79
2021/05/06 05:40:10;;;;;;;10.77;1.67;;;;;;;5.09;78.30;99498.75;5096139;28;20024;-79
2021/05/06 05:45:35;;;;;;;13.20;2.03;;;;;;;5.37;77.55;99500.97;5096089;28;20020;-80
2021/05/06 05:48:39;;;;;;;10.40;2.47;;;;;;;5.26;77.36;99493.38;5095887;28;20063;-80
2021/05/06 05:54:33;;;;;;;12.93;2.47;;;;;;;5.78;78.80;99500.31;5096256;28;20200;-80
2021/05/06 05:56:31;;;;;;;15.00;2.50;;;;;;;5.61;76.03;99510.88;5096709;28;20042;-80
2021/05/06 05:58:57;;;;;;;14.10;2.45;;;;;;;6.17;75.34;99501.44;5095880;28;20020;-80
2021/05/06 06:01:27;;;;;;;9.88;2.08;;;;;;;6.24;74.62;99502.16;5095744;28;20057;-80
2021/05/06 06:03:53;;;;;;;13.18;2.40;;;;;;;5.80;76.30;99498.59;5093689;28;20016;-80
2021/05/06 06:06:18;;;;;;;10.27;2.60;;;;;;;6.14;74.63;99510.94;5094374;28;20073;-80
2021/05/06 06:08:43;;;;;;;12.25;2.20;;;;;;;6.52;73.97;99510.25;5095885;28;20067;-80
2021/05/06 06:11:09;;;;;;;9.80;1.98;;;;;;;6.62;72.99;99504.06;5095383;28;20150;-80
2021/05/06 06:13:34;;;;;;;11.15;2.10;;;;;;;6.07;75.22;99507.63;5095560;28;20089;-80
2021/05/06 06:16:02;;;;;;;17.17;2.92;;;;;;;6.71;72.99;99515.88;5094825;28;20024;-80
2021/05/06 06:18:51;;;;;;;14.88;2.53;;;;;;;6.83;73.25;99519.97;5096204;28;20498;-80
2021/05/06 06:21:19;;;;;;;14.88;2.70;;;;;;;6.15;74.09;99522.91;5096380;28;20064;-80
2021/05/06 06:23:45;;;;;;;12.00;2.35;;;;;;;6.53;73.14;99519.69;5097325;28;20024;-80
2021/05/06 06:26:10;;;;;;;16.13;2.60;;;;;;;6.93;73.56;99513.75;5095849;28;20438;-80
2021/05/06 06:28:48;;;;;;;11.40;2.22;;;;;;;6.52;72.07;99514.53;5097505;28;20023;-80
2021/05/06 06:31:18;;;;;;;10.05;2.15;;;;;;;6.91;71.30;99516.34;5094660;28;20031;-80
2021/05/06 06:33:44;;;;;;;13.38;2.85;;;;;;;6.83;71.21;99502.75;5096587;28;20027;-80
2021/05/06 06:36:10;;;;;;;13.52;2.53;;;;;;;6.77;71.72;99510.63;5095307;28;20027;-80
2021/05/06 06:38:35;;;;;;;12.15;2.63;;;;;;;7.45;70.61;99520.41;5094230;28;20035;-80
2021/05/06 06:41:03;;;;;;;11.23;2.13;;;;;;;7.20;69.51;99516.63;5094675;28;20035;-79
2021/05/06 06:43:30;;;;;;;13.23;1.92;;;;;;;7.20;68.39;99520.06;5094731;28;20099;-80
2021/05/06 06:45:55;;;;;;;14.73;2.92;;;;;;;7.15;68.89;99514.16;5095227;28;20016;-80
2021/05/06 06:48:20;;;;;;;10.65;2.40;;;;;;;7.58;68.92;99524.38;5093244;28;20027;-80
2021/05/06 06:50:46;;;;;;;13.05;2.25;;;;;;;8.15;70.08;99519.59;5093694;28;20024;-80
2021/05/06 06:53:12;;;;;;;11.48;2.25;;;;;;;8.50;65.71;99519.59;5095275;28;20039;-80
2021/05/06 06:55:38;;;;;;;11.20;2.20;;;;;;;8.17;66.03;99516.09;5092977;28;20119;-80
2021/05/06 06:58:08;;;;;;;11.13;2.33;;;;;;;7.63;68.36;99528.59;5093244;28;20048;-79
2021/05/06 07:00:33;;;;;;;12.27;2.08;;;;;;;7.05;71.37;99520.38;5092532;28;20511;-79
2021/05/06 07:02:59;;;;;;;14.70;2.92;;;;;;;8.18;68.22;99527.28;5095302;28;20028;-79
2021/05/06 07:05:24;;;;;;;8.75;1.85;;;;;;;7.09;66.81;99519.44;5098141;28;20110;-80
2021/05/06 07:07:49;;;;;;;15.13;2.22;;;;;;;8.12;65.47;99520.53;5095829;28;20024;-80
2021/05/06 07:10:14;;;;;;;12.95;2.13;;;;;;;8.37;65.81;99525.06;5096418;28;20542;-79
2021/05/06 07:12:40;;;;;;;12.85;2.67;;;;;;;8.89;64.64;99527.13;5077134;28;20110;-79
2021/05/06 07:15:06;;;;;;;13.38;2.10;;;;;;;8.98;64.13;99516.53;5096442;28;20024;-79
2021/05/06 07:17:31;;;;;;;12.05;2.08;;;;;;;9.51;61.35;99514.97;5098516;28;20028;-79
2021/05/06 07:19:56;;;;;;;10.00;1.90;;;;;;;9.88;61.46;99517.25;5096825;28;20518;-80
2021/05/06 07:22:21;;;;;;;11.00;2.40;;;;;;;9.53;60.33;99528.72;5097406;28;20101;-80
2021/05/06 07:24:47;;;;;;;12.75;2.25;;;;;;;9.79;60.45;99520.16;5098700;28;20108;-80
2021/05/06 07:27:12;;;;;;;9.40;1.92;;;;;;;10.24;58.02;99520.41;5096705;28;20046;-80
2021/05/06 07:29:37;;;;;;;11.70;2.33;;;;;;;9.70;61.77;99531.66;5097394;28;20016;-80
2021/05/06 07:32:03;;;;;;;10.50;2.17;;;;;;;9.56;59.88;99529.47;5079368;28;20054;-79
2021/05/06 07:34:28;;;;;;;8.18;1.77;;;;;;;9.80;58.10;99529.63;5097569;28;20026;-80
2021/05/06 07:36:53;;;;;;;7.88;1.85;;;;;;;8.98;62.56;99534.63;5096691;28;20024;-80
2021/05/06 07:39:19;;;;;;;11.27;1.92;;;;;;;8.82;61.54;99529.94;5101231;28;20024;-80
2021/05/06 07:41:44;;;;;;;10.27;1.73;;;;;;;8.93;59.90;99539.09;5101434;28;20056;-80
2021/05/06 07:44:09;;;;;;;8.32;2.22;;;;;;;8.71;62.65;99532.78;5103215;28;20028;-80
2021/05/06 07:46:35;;;;;;;13.45;2.03;;;;;;;7.88;64.37;99534.88;5085943;28;20051;-80
2021/05/06 07:49:01;;;;;;;11.07;1.70;;;;;;;8.40;62.10;99541.34;5086272;28;20028;-79
2021/05/06 07:51:27;;;;;;;7.78;1.88;;;;;;;9.83;56.98;99525.19;5101774;28;20087;-80
2021/05/06 07:53:53;;;;;;;9.93;1.90;;;;;;;7.73;65.01;99537.84;5101448;28;20405;-80
2021/05/06 07:56:20;;;;;;;10.57;1.77;;;;;;;8.89;62.53;99542.63;5083130;28;20538;-80
2021/05/06 07:58:45;;;;;;;9.45;1.73;;;;;;;9.49;58.68;99538.34;5102137;28;20058;-80
2021/05/06 08:01:11;;;;;;;12.15;2.15;;;;;;;9.26;58.62;99531.25;5099170;28;20392;-79
2021/05/06 08:03:37;;;;;;;10.52;2.17;;;;;;;8.32;61.59;99545.88;5100306;28;20073;-80
2021/05/06 08:06:03;;;;;;;9.88;1.77;;;;;;;8.29;63.40;99530.44;5100527;28;20023;-80
2021/05/06 08:08:28;;;;;;;7.60;1.88;;;;;;;8.21;63.48;99548.69;5102229;28;20024;-79
2021/05/06 08:10:56;;;;;;;6.47;1.73;;;;;;;7.31;65.90;99553.38;5101143;28;20028;-80
2021/05/06 08:13:26;;;;;;;11.43;2.05;;;;;;;7.59;65.09;99549.31;5102111;28;20027;-80
2021/05/06 08:15:53;;;;;;;8.73;1.75;;;;;;;8.78;61.06;99538.69;5101391;28;20054;-80
2021/05/06 08:18:19;;;;;;;11.70;1.95;;;;;;;8.07;63.18;99551.63;5084242;28;20051;-80
2021/05/06 08:20:44;;;;;;;9.13;1.85;;;;;;;7.66;66.17;99554.31;5103679;28;20073;-80
2021/05/06 08:23:13;;;;;;;11.02;2.35;;;;;;;7.46;66.05;99547.03;5102769;28;20040;-80
2021/05/06 08:25:39;;;;;;;10.02;1.88;;;;;;;7.08;67.92;99567.59;5084682;28;20053;-80
2021/05/06 08:28:05;;;;;;;13.52;2.38;;;;;;;7.00;66.99;99559.16;5101323;28;20034;-80
2021/05/06 08:30:31;;;;;;;10.23;1.70;;;;;;;7.29;64.76;99571.44;5084907;28;20055;-80
2021/05/06 08:32:56;;;;;;;10.00;1.63;;;;;;;7.54;65.11;99566.63;5101233;28;20084;-80
2021/05/06 08:35:22;;;;;;;13.25;2.38;;;;;;;7.95;65.26;99567.41;5083495;28;20024;-80
2021/05/06 08:37:48;;;;;;;9.13;2.17;;;;;;;7.67;63.82;99568.94;5099746;28;20090;-79
2021/05/06 08:40:13;;;;;;;8.05;1.60;;;;;;;7.80;62.10;99563.44;5099094;28;20028;-80
2021/05/06 08:42:39;;;;;;;10.25;1.95;;;;;;;6.90;63.61;99571.38;5100080;28;20032;-80
2021/05/06 08:45:06;;;;;;;10.13;1.92;;;;;;;7.17;64.41;99574.25;5101340;28;20449;-80
2021/05/06 08:47:32;;;;;;;10.90;1.83;;;;;;;9.22;59.76;99576.22;5102429;28;20085;-79
2021/05/06 08:49:58;;;;;;;8.93;1.65;;;;;;;9.28;58.56;99577.78;5104128;28;20035;-81
2021/05/06 08:52:24;;;;;;;12.68;2.72;;;;;;;10.76;54.37;99562.72;5086897;28;20024;-81
2021/05/06 08:54:52;;;;;;;10.05;1.60;;;;;;;10.01;54.50;99562.63;5101366;28;20051;-80
2021/05/06 08:57:22;;;;;;;7.93;1.85;;;;;;;8.87;56.66;99565.13;5103443;28;20023;-80
2021/05/06 08:59:48;;;;;;;9.00;1.23;;;;;;;8.00;60.71;99570.72;5084699;28;20027;-81
2021/05/06 09:02:14;;;;;;;12.55;1.65;;;;;;;8.92;56.99;99570.16;5102140;28;20024;-80
2021/05/06 09:04:39;;;;;;;10.27;1.20;;;;;;;11.12;52.21;99577.88;5082925;28;20024;-81
2021/05/06 09:07:08;;;;;;;6.03;1.25;;;;;;;11.44;50.87;99573.25;5100522;28;20024;-81
2021/05/06 09:09:33;;;;;;;11.68;1.80;;;;;;;10.90;50.77;99571.75;5082601;28;20028;-81
2021/05/06 09:12:06;;;;;;;7.88;1.48;;;;;;;11.18;48.29;99572.47;5099719;28;20023;-81
2021/05/06 09:14:42;;;;;;;8.82;1.67;;;;;;;12.10;48.43;99581.09;5100532;28;20400;-81
2021/05/06 09:17:25;;;;;;;6.32;1.30;;;;;;;11.44;50.03;99581.03;5099098;28;20034;-81
2021/05/06 09:19:55;;;;;;;7.47;1.67;;;;;;;12.11;49.60;99577.63;5082442;28;20028;-81
2021/05/06 09:22:40;;;;;;;9.38;1.55;;;;;;;11.84;46.66;99585.56;5100045;28;20070;-81
2021/05/06 09:25:31;;;;;;;6.78;1.38;;;;;;;12.79;46.87;99579.09;5101177;28;20027;-81
2021/05/06 09:28:08;;;;;;;9.70;1.80;;;;;;;12.51;46.88;99574.22;5101955;28;20024;-81
2021/05/06 09:30:37;;;;;;;6.80;1.33;;;;;;;12.37;47.46;99574.78;5083308;28;20039;-81
2021/05/06 09:33:05;;;;;;;6.80;1.30;;;;;;;9.54;52.08;99588.22;5084527;28;20016;-81
2021/05/06 09:35:51;;;;;;;7.63;1.52;;;;;;;11.40;46.74;99576.88;5104343;28;20020;-81
2021/05/06 09:38:31;;;;;;;9.98;1.70;;;;;;;12.36;44.08;99567.91;5103934;28;20036;-81
2021/05/06 09:41:01;;;;;;;5.75;1.50;;;;;;;12.97;45.86;99574.00;5102179;28;20026;-81
2021/05/06 09:43:32;;;;;;;7.70;1.40;;;;;;;13.88;42.92;99581.16;5102507;28;20023;-81
2021/05/06 09:45:59;;;;;;;5.85;1.20;;;;;;;10.80;45.97;99571.22;5101502;28;20077;-81
2021/05/06 09:48:24;;;;;;;7.90;1.73;;;;;;;10.52;49.56;99585.16;5100874;28;20553;-81
2021/05/06 09:50:56;;;;;;;6.55;1.73;;;;;;;9.34;52.44;99587.97;5104039;28;20024;-81
2021/05/06 09:53:23;;;;;;;8.35;1.30;;;;;;;10.75;48.22;99579.19;5103054;28;20028;-80
2021/05/06 09:55:49;;;;;;;10.75;1.88;;;;;;;12.01;48.11;99576.25;5102379;28;20020;-80
2021/05/06 09:58:23;;;;;;;4.72;1.02;;;;;;;11.83;45.01;99575.22;5103672;28;20160;-80
2021/05/06 10:00:49;;;;;;;7.25;1.58;;;;;;;10.62;48.17;99577.06;5102759;28;20020;-81
2021/05/06 10:03:20;;;;;;;7.68;1.42;;;;;;;11.32;45.00;99576.31;5102527;28;20385;-81
2021/05/06 10:05:47;;;;;;;8.13;1.45;;;;;;;11.74;46.20;99572.06;5085145;28;20028;-81
2021/05/06 10:08:14;;;;;;;9.80;1.75;;;;;;;12.00;45.93;99578.03;5101724;28;20491;-81
2021/05/06 10:10:41;;;;;;;9.30;1.30;;;;;;;11.48;48.81;99572.22;5103692;28;20115;-80
2021/05/06 10:13:09;;;;;;;7.65;1.73;;;;;;;10.15;50.34;99583.72;5100498;28;20054;-81
2021/05/06 10:15:35;;;;;;;7.90;1.33;;;;;;;8.50;55.17;99602.28;5083835;28;20031;-80
2021/05/06 10:18:00;;;;;;;4.75;1.15;;;;;;;7.90;58.63;99615.72;5100804;28;20024;-82
2021/05/06 10:20:26;;;;;;;6.15;1.48;;;;;;;9.59;56.56;99626.91;5101183;28;20028;-81
2021/05/06 10:22:54;;;;;;;11.13;1.55;;;;;;;8.65;59.55;99636.34;5083358;28;20024;-81
2021/05/06 10:25:21;;;;;;;3.58;0.70;;;;;;;7.19;64.30;99634.41;5102457;28;20392;-81
2021/05/06 10:27:48;;;;;;;6.13;1.42;;;;;;;6.12;67.40;99661.97;5101015;28;20111;-81
2021/05/06 10:30:14;;;;;;;2.83;0.75;;;;;;;5.99;71.40;99658.75;5102957;28;20028;-81
2021/05/06 10:32:41;;;;;;;4.45;0.82;;;;;;;6.09;71.26;99660.31;5100991;28;20026;-81
2021/05/06 10:35:13;;;;;;;5.38;0.98;;;;;;;6.72;73.75;99653.34;5101802;28;20031;-81
2021/05/06 10:37:42;;;;;;;9.60;0.80;;;;;;;8.57;62.42;99636.56;5085080;28;20019;-81
2021/05/06 10:40:19;;;;;;;3.42;0.80;;;;;;;10.63;55.88;99628.88;5101621;28;20023;-81
2021/05/06 10:42:44;;;;;;;3.70;0.70;;;;;;;11.33;54.76;99614.31;5083343;28;20027;-81
2021/05/06 10:45:13;;;;;;;4.65;0.90;;;;;;;12.22;49.99;99611.78;5100701;28;20052;-81
2021/05/06 10:47:40;;;;;;;4.00;0.90;;;;;;;11.95;44.93;99613.75;5101953;28;20391;-81
2021/05/06 10:50:16;;;;;;;6.70;1.08;;;;;;;12.93;45.63;99598.44;5083894;28;20024;-81
2021/05/06 10:52:49;;;;;;;10.18;1.80;;;;;;;12.46;43.75;99604.75;5084347;28;20044;-81
2021/05/06 10:55:16;;;;;;;4.60;0.98;;;;;;;12.63;43.15;99602.31;5084010;28;20077;-81
2021/05/06 10:57:41;;;;;;;5.85;1.08;;;;;;;11.80;45.28;99596.13;5100940;28;20028;-81
2021/05/06 11:00:16;;;;;;;3.78;0.90;;;;;;;12.88;43.83;99588.25;5084219;28;20035;-81
2021/05/06 11:02:42;;;;;;;7.03;1.20;;;;;;;13.54;42.58;99582.72;5102095;28;20070;-81
2021/05/06 11:05:12;;;;;;;5.45;1.05;;;;;;;12.93;42.59;99581.09;5084079;28;20399;-81
2021/05/06 11:07:37;;;;;;;8.40;1.35;;;;;;;13.17;39.95;99581.75;5101369;28;20028;-81
2021/05/06 11:10:04;;;;;;;6.82;1.17;;;;;;;13.06;40.01;99587.47;5100534;28;20020;-81
2021/05/06 11:12:32;;;;;;;9.80;1.20;;;;;;;11.79;40.89;99584.88;5101574;28;20044;-81
2021/05/06 11:15:00;;;;;;;8.75;1.25;;;;;;;10.57;46.61;99603.16;5081242;28;20016;-81
2021/05/06 11:17:40;;;;;;;6.18;1.10;;;;;;;9.87;48.41;99622.59;5080392;28;20031;-81
2021/05/06 11:20:12;;;;;;;5.75;1.50;;;;;;;8.91;52.17;99626.22;5096841;28;20547;-81
2021/05/06 11:22:47;;;;;;;6.93;1.20;;;;;;;8.14;57.27;99642.72;5080510;28;20028;-81
2021/05/06 11:27:55;;;;;;;6.25;1.35;;;;;;;7.03;63.05;99658.78;5098981;28;20045;-81
2021/05/06 11:30:42;;;;;;;8.35;1.25;;;;;;;6.48;60.47;99658.00;5099345;28;20024;-81
2021/05/06 11:33:20;;;;;;;6.80;1.10;;;;;;;6.35;64.46;99664.22;5081186;28;20122;-81
2021/05/06 11:35:55;;;;;;;4.25;1.05;;;;;;;5.41;65.55;99659.44;5099384;28;20020;-81
2021/05/06 11:38:21;;;;;;;3.58;1.00;;;;;;;5.31;66.75;99646.72;5098012;28;20079;-80
2021/05/06 11:40:46;;;;;;;5.47;0.90;;;;;;;5.48;59.57;99646.53;5097208;28;20109;-80
2021/05/06 11:43:21;;;;;;;5.20;0.80;;;;;;;5.67;61.71;99646.28;5124747;22;20047;-81
2021/05/06 11:45:47;;;;;;;3.55;0.80;;;;;;;7.46;62.45;99635.59;5146031;28;20032;-81
2021/05/06 11:48:13;;;;;;;4.18;0.80;;;;;;;9.94;53.33;99620.66;5152475;28;20038;-81
2021/05/06 11:50:43;;;;;;;2.58;0.80;;;;;;;10.18;52.89;99623.41;5142329;28;20035;-80
2021/05/06 11:53:15;;;;;;;6.18;0.80;;;;;;;10.84;49.82;99614.34;5136084;28;20019;-82
2021/05/06 11:55:43;;;;;;;5.90;0.85;;;;;;;10.65;50.75;99606.31;5136232;28;20502;-82
2021/05/06 11:58:10;;;;;;;8.00;1.10;;;;;;;10.93;49.11;99598.47;5136112;28;20023;-82
2021/05/06 12:00:37;;;;;;;7.68;1.35;;;;;;;11.95;46.79;99599.00;5136299;28;20019;-82
2021/05/06 12:03:05;;;;;;;4.95;0.93;;;;;;;12.72;47.80;99588.06;5136553;28;20040;-82
2021/05/06 12:06:07;;;;;;;7.35;1.40;;;;;;;12.95;46.02;99592.28;5135876;28;20027;-82
2021/05/06 12:08:46;;;;;;;12.38;1.92;;;;;;;12.79;44.30;99583.44;5078554;28;20031;-82
2021/05/06 12:11:13;;;;;;;9.68;1.85;;;;;;;13.70;44.17;99595.88;5128892;28;20037;-82
2021/05/06 12:13:40;;;;;;;7.30;1.10;;;;;;;12.76;45.68;99586.19;5137018;28;20475;-82
2021/05/06 12:16:23;;;;;;;6.40;1.10;;;;;;;10.25;53.57;99594.66;5140232;28;20024;-83
2021/05/06 12:18:59;;;;;;;6.80;1.50;;;;;;;11.66;52.31;99596.66;5137288;28;20390;-84
2021/05/06 12:21:58;;;;;;;3.97;0.93;;;;;;;9.55;53.98;99604.63;5136444;28;20019;-83
2021/05/06 12:24:31;;;;;;;5.97;1.02;;;;;;;11.40;51.28;99590.69;5127487;27;20091;-84
2021/05/06 12:26:58;;;;;;;5.35;0.80;;;;;;;13.28;48.24;99583.94;5140425;27;20050;-84
2021/05/06 12:29:25;;;;;;;6.97;1.05;;;;;;;12.55;45.02;99575.75;5140355;27;20371;-83
2021/05/06 12:31:51;;;;;;;4.55;0.90;;;;;;;13.02;43.11;99592.84;5138701;27;20078;-84
2021/05/06 12:34:22;;;;;;;2.25;0.57;;;;;;;12.12;40.08;99587.94;5137914;27;20571;-83
2021/05/06 12:36:52;;;;;;;3.50;0.82;;;;;;;12.85;39.35;99581.41;5139617;27;20026;-84
2021/05/06 12:39:19;;;;;;;4.32;0.77;;;;;;;12.73;42.64;99581.13;5137502;27;20027;-84
2021/05/06 12:41:49;;;;;;;5.78;1.23;;;;;;;12.75;41.75;99589.72;5137632;27;20015;-84
2021/05/06 12:44:31;;;;;;;5.68;0.90;;;;;;;13.09;40.50;99568.25;5136587;27;20039;-84
2021/05/06 12:47:36;;;;;;;4.15;0.85;;;;;;;12.14;39.88;99583.53;5136392;27;20039;-85
2021/05/06 12:50:20;;;;;;;7.00;0.98;;;;;;;12.00;37.95;99578.03;5132974;27;20506;-85
2021/05/06 12:52:51;;;;;;;2.95;0.70;;;;;;;11.83;37.60;99570.88;5136712;27;20115;-85
2021/05/06 12:55:22;;;;;;;5.88;0.95;;;;;;;12.39;36.28;99577.31;5137958;27;20027;-84
2021/05/06 12:58:14;;;;;;;3.42;0.77;;;;;;;12.04;37.75;99577.00;5138982;27;20022;-84
2021/05/06 13:00:41;;;;;;;3.80;0.70;;;;;;;12.04;36.07;99574.41;5133283;27;20027;-83
2021/05/06 13:03:13;;;;;;;3.97;0.93;;;;;;;12.25;36.06;99577.03;5139647;27;20140;-83
2021/05/06 13:05:42;;;;;;;2.80;0.70;;;;;;;12.10;37.66;99562.91;5137844;27;20042;-84
2021/05/06 13:08:07;;;;;;;4.40;0.82;;;;;;;11.71;34.76;99555.78;5139536;27;20015;-83
2021/05/06 13:10:35;;;;;;;5.18;0.80;;;;;;;11.92;35.84;99561.91;5142154;27;20030;-82
2021/05/06 13:13:02;;;;;;;3.25;0.70;;;;;;;11.97;35.01;99565.16;5140523;27;20096;-82
2021/05/06 13:15:28;;;;;;;4.15;0.82;;;;;;;12.30;35.92;99562.94;5139863;27;20064;-83
2021/05/06 13:17:55;;;;;;;4.35;0.90;;;;;;;11.83;37.14;99557.03;5139816;27;20023;-83
2021/05/06 13:20:27;;;;;;;4.07;1.15;;;;;;;11.72;37.77;99549.66;5141619;27;20038;-83
2021/05/06 13:23:02;;;;;;;4.13;0.80;;;;;;;11.36;36.94;99557.09;5141077;27;20068;-84
2021/05/06 13:25:40;;;;;;;4.55;1.13;;;;;;;11.59;40.04;99559.69;5139652;27;20031;-83
2021/05/06 13:28:05;;;;;;;3.08;0.80;;;;;;;12.15;39.57;99550.56;5140016;27;20109;-84
2021/05/06 13:30:31;;;;;;;6.20;1.63;;;;;;;11.71;38.65;99559.22;5139676;27;20490;-84
2021/05/06 13:33:08;;;;;;;5.60;0.90;;;;;;;12.25;39.53;99556.25;5138547;27;20046;-83
2021/05/06 13:35:34;;;;;;;4.53;0.70;;;;;;;12.07;39.70;99558.69;5136575;27;20067;-84
2021/05/06 13:37:59;;;;;;;7.80;1.02;;;;;;;11.69;38.25;99561.00;5137689;27;20106;-85
2021/05/06 13:40:24;;;;;;;3.30;0.82;;;;;;;11.96;39.35;99566.06;5156474;27;20526;-83
2021/05/06 13:42:49;;;;;;;5.72;1.05;;;;;;;11.55;43.88;99565.91;5141736;27;20041;-81
2021/05/06 13:45:14;;;;;;;3.75;0.90;;;;;;;11.46;47.68;99572.28;5139058;27;20028;-83
2021/05/06 13:47:40;;;;;;;3.47;0.85;;;;;;;9.79;50.82;99580.56;5139314;27;20023;-83
2021/05/06 13:50:06;;;;;;;5.35;1.13;;;;;;;9.38;52.79;99597.31;5139575;27;20023;-83
2021/05/06 13:52:31;;;;;;;3.80;0.90;;;;;;;9.62;54.14;99606.97;5142125;27;20022;-83
2021/05/06 13:54:58;;;;;;;4.63;0.77;;;;;;;10.33;52.82;99582.31;5140250;27;20423;-84
2021/05/06 13:57:23;;;;;;;6.13;0.77;;;;;;;10.51;50.85;99586.06;5138927;27;20023;-84
2021/05/06 13:59:48;;;;;;;4.80;0.85;;;;;;;10.65;50.85;99588.16;5141020;27;20026;-83
2021/05/06 14:02:16;;;;;;;4.18;0.90;;;;;;;10.31;52.12;99602.28;5140004;27;20019;-84
2021/05/06 14:04:42;;;;;;;4.78;0.90;;;;;;;10.57;50.63;99593.63;5135644;27;20054;-81
2021/05/06 14:07:07;;;;;;;4.97;0.60;;;;;;;10.03;49.94;99601.41;5150237;27;20011;-81
2021/05/06 14:09:32;;;;;;;1.77;0.70;;;;;;;10.08;49.38;99595.19;5159355;27;20027;-81
2021/05/06 14:11:58;;;;;;;2.65;0.90;;;;;;;10.03;47.52;99589.31;5136304;27;20027;-82
2021/05/06 14:14:23;;;;;;;3.15;0.68;;;;;;;10.76;48.06;99577.44;5138439;27;20114;-81
2021/05/06 14:16:48;;;;;;;4.50;0.90;;;;;;;10.35;48.16;99580.53;5136681;27;20026;-82
2021/05/06 14:19:14;;;;;;;3.63;0.95;;;;;;;10.47;48.49;99573.25;5136264;27;20034;-82
2021/05/06 14:21:41;;;;;;;5.80;0.77;;;;;;;10.02;49.47;99577.25;5137493;27;20063;-82
2021/05/06 14:24:09;;;;;;;7.97;1.58;;;;;;;10.20;48.37;99567.22;5137020;27;20050;-82
2021/05/06 14:26:35;;;;;;;3.13;0.80;;;;;;;10.19;46.87;99560.31;5137292;27;20038;-82
2021/05/06 14:29:00;;;;;;;5.85;1.02;;;;;;;10.59;47.27;99558.13;5138697;27;20018;-82
2021/05/06 14:31:25;;;;;;;8.32;1.52;;;;;;;10.81;46.36;99554.78;5139206;27;20045;-82
2021/05/06 14:33:51;;;;;;;5.80;1.13;;;;;;;10.48;46.14;99551.63;5138337;27;20023;-82
2021/05/06 14:36:16;;;;;;;6.13;0.95;;;;;;;10.45;47.02;99551.72;5138024;27;20025;-82
2021/05/06 14:38:42;;;;;;;5.97;0.90;;;;;;;10.55;46.63;99553.09;5136741;27;20035;-82
2021/05/06 14:41:09;;;;;;;4.72;1.17;;;;;;;10.46;46.48;99548.22;5137533;27;20047;-82
2021/05/06 14:43:34;;;;;;;4.47;0.90;;;;;;;10.94;46.97;99544.81;5136489;27;20111;-82
2021/05/06 14:46:01;;;;;;;6.15;1.20;;;;;;;10.85;47.09;99547.75;5138417;27;20541;-80
2021/05/06 14:48:26;;;;;;;5.82;1.05;;;;;;;10.62;47.63;99544.19;5137256;27;20031;-82
2021/05/06 14:50:52;;;;;;;7.43;1.63;;;;;;;10.46;48.69;99548.22;5139114;27;20110;-81
2021/05/06 14:53:17;;;;;;;5.53;1.45;;;;;;;10.58;47.69;99532.25;5137606;27;20019;-81
2021/05/06 14:55:43;;;;;;;8.23;1.17;;;;;;;10.53;47.53;99529.81;5138184;27;20055;-81
2021/05/06 14:58:09;;;;;;;5.18;1.27;;;;;;;10.15;47.70;99533.66;5136963;27;20118;-81